Awaji Maru — JD2988 — position and weather

sailwx.info

Track history (hours):
 
Tides and Currents Weather Stations Pressure Air Temp Water Temp Dewpoint Dewpoint Depression Visibility Wind Speed Wind Dir Waves Ship Positions

Awaji Maru

Last reported at 2014-Jul-22 14:34 UTC. Time now 2014-Jul-22 14:59 UTC.
Position N 35°27' E 139°38'.

Length 37 m; draft 3 m.

Type: Tug. MMSI: 431001074.

Date/timePositionNaut miles runAvg speedWind from/ knotsBaromVisibWave heightAir tempDewpointWater temp
2014-Jul-22 14:34N 35°27' E 139°38'0 0.0
2014-Jul-22 13:34N 35°27' E 139°38'0 0.0
2014-Jul-22 12:33N 35°27' E 139°38'0 0.0
2014-Jul-22 11:34N 35°27' E 139°38'0 0.0
2014-Jul-22 10:34N 35°27' E 139°38'0 0.0
2014-Jul-22 09:34N 35°27' E 139°38'0 0.0
2014-Jul-22 08:33N 35°27' E 139°38'0 0.4
2014-Jul-22 07:34N 35°28' E 139°39'6 6.3
2014-Jul-22 06:34N 35°30' E 139°46'4 4.3
2014-Jul-22 05:34N 35°27' E 139°43'2 1.7
2014-Jul-22 04:34N 35°28' E 139°44'0 0.2
2014-Jul-22 03:34N 35°28' E 139°44'1 1.5
2014-Jul-22 02:33N 35°27' E 139°45'2 1.6
2014-Jul-22 01:33N 35°28' E 139°44'0 0.3
2014-Jul-22 00:33N 35°28' E 139°43'3 3.3
2014-Jul-21 23:34N 35°27' E 139°39'0 0.0
2014-Jul-21 22:33N 35°27' E 139°39'0 0.0
2014-Jul-21 21:33N 35°27' E 139°39'1 0.8
2014-Jul-21 20:34N 35°27' E 139°38'0 0.0
2014-Jul-21 20:18N 35°27' E 139°38'0 0.0
2014-Jul-21 19:34N 35°27' E 139°38'0 0.0
2014-Jul-21 18:34N 35°27' E 139°38'0 0.0
2014-Jul-21 17:33N 35°27' E 139°38'0 0.0
2014-Jul-21 16:34N 35°27' E 139°38'0 0.0
2014-Jul-21 15:34N 35°27' E 139°38'0 0.0
2014-Jul-21 14:34N 35°27' E 139°38'0 0.0
2014-Jul-21 13:34N 35°27' E 139°38'0 0.0
2014-Jul-21 12:34N 35°27' E 139°38'0 0.0
2014-Jul-21 11:34N 35°27' E 139°38'0 0.0
2014-Jul-21 10:34N 35°27' E 139°38'0 0.0
2014-Jul-21 09:33N 35°27' E 139°38'0 0.0
2014-Jul-21 08:33N 35°27' E 139°38'0 0.0
2014-Jul-21 07:33N 35°27' E 139°38'3 2.7
2014-Jul-21 06:33N 35°25' E 139°39'2 2.2
2014-Jul-21 05:33N 35°23' E 139°41'0 0.4
2014-Jul-21 04:34N 35°23' E 139°40'0 0.0
2014-Jul-21 03:34N 35°23' E 139°40'0 0.0
2014-Jul-21 02:34N 35°23' E 139°40'5 5.2
2014-Jul-21 01:34N 35°28' E 139°43'0 0.1
2014-Jul-21 00:33N 35°28' E 139°43'1 1.4
2014-Jul-20 23:33N 35°26' E 139°44'2 1.7
2014-Jul-20 22:34N 35°27' E 139°42'1 1.0
2014-Jul-20 21:34N 35°27' E 139°41'2 2.0
2014-Jul-20 20:34N 35°27' E 139°38'0 0.1
2014-Jul-20 19:34N 35°27' E 139°38'0 0.0
2014-Jul-20 18:34N 35°27' E 139°38'0 0.0
2014-Jul-20 17:34N 35°27' E 139°38'0 0.0
2014-Jul-20 16:34N 35°27' E 139°38'0 0.0
2014-Jul-20 15:34N 35°27' E 139°38'0 0.0
2014-Jul-20 14:33N 35°27' E 139°38'0 0.0
2014-Jul-20 13:33N 35°27' E 139°38'0 0.0
2014-Jul-20 12:34N 35°27' E 139°38'0 0.0
2014-Jul-20 11:33N 35°27' E 139°38'0 0.0
2014-Jul-20 10:34N 35°27' E 139°38'0 0.0
2014-Jul-20 09:34N 35°27' E 139°38'0 0.0
2014-Jul-20 08:34N 35°27' E 139°38'0 0.0
2014-Jul-20 07:34N 35°27' E 139°38'0 0.0
2014-Jul-20 06:34N 35°27' E 139°38'0 0.0
2014-Jul-20 05:33N 35°27' E 139°38'0 0.0
2014-Jul-20 04:33N 35°27' E 139°38'0 0.0
2014-Jul-20 03:34N 35°27' E 139°38'0 0.0
2014-Jul-20 02:33N 35°27' E 139°38'0 0.0
2014-Jul-20 01:34N 35°27' E 139°38'0 0.0
2014-Jul-20 00:33N 35°27' E 139°38'0 0.0
2014-Jul-19 23:33N 35°27' E 139°38'0 0.0
2014-Jul-19 22:33N 35°27' E 139°38'0 0.0
2014-Jul-19 21:33N 35°27' E 139°38'0 0.0
2014-Jul-19 20:34N 35°27' E 139°38'0 0.0
2014-Jul-19 19:34N 35°27' E 139°38'0 0.0
2014-Jul-19 18:34N 35°27' E 139°38'0 0.0
2014-Jul-19 17:34N 35°27' E 139°38'0 0.0
2014-Jul-19 16:34N 35°27' E 139°38'0 0.0
2014-Jul-19 15:34N 35°27' E 139°38'0 0.0
2014-Jul-19 14:33N 35°27' E 139°38'0 0.0
2014-Jul-19 13:33N 35°27' E 139°38'0 0.0
2014-Jul-19 12:33N 35°27' E 139°38'0 0.0
2014-Jul-19 11:34N 35°27' E 139°38'0 0.0
2014-Jul-19 10:34N 35°27' E 139°38'0 0.0
2014-Jul-19 09:34N 35°27' E 139°38'0 0.0
2014-Jul-19 08:33N 35°27' E 139°38'0 0.0
2014-Jul-19 07:34N 35°27' E 139°38'0 0.0
2014-Jul-19 06:33N 35°27' E 139°38'0 0.0
2014-Jul-19 05:34N 35°27' E 139°38'0 0.0
2014-Jul-19 04:34N 35°27' E 139°38'0 0.0
2014-Jul-19 03:34N 35°27' E 139°38'0 0.0
2014-Jul-19 02:34N 35°27' E 139°38'0 0.0
2014-Jul-19 01:33N 35°27' E 139°38'0 0.0
2014-Jul-19 00:34N 35°27' E 139°38'0 0.0
2014-Jul-18 23:34N 35°27' E 139°38'0 0.0
2014-Jul-18 22:33N 35°27' E 139°38'0 0.0
2014-Jul-18 21:34N 35°27' E 139°38'0 0.0
2014-Jul-18 20:34N 35°27' E 139°38'0 0.0
2014-Jul-18 19:33N 35°27' E 139°38'0 0.0
2014-Jul-18 18:34N 35°27' E 139°38'0 0.0
2014-Jul-18 17:34N 35°27' E 139°38'0 0.0
2014-Jul-18 16:34N 35°27' E 139°38'0 0.0
2014-Jul-18 15:34N 35°27' E 139°38'0 0.0
2014-Jul-18 14:34N 35°27' E 139°38'0 0.0
2014-Jul-18 13:34N 35°27' E 139°38'0 0.0
2014-Jul-18 12:34N 35°27' E 139°38'0 0.0
2014-Jul-18 11:34N 35°27' E 139°38'0 0.0
2014-Jul-18 10:33N 35°27' E 139°38'0 0.0
2014-Jul-18 09:33N 35°27' E 139°38'0 0.3
2014-Jul-18 08:34N 35°28' E 139°39'3 2.7
2014-Jul-18 07:34N 35°28' E 139°42'3 2.5
2014-Jul-18 06:33N 35°28' E 139°39'0 0.4
2014-Jul-18 05:34N 35°27' E 139°38'0 0.0
2014-Jul-18 04:34N 35°27' E 139°38'0 0.0
2014-Jul-18 03:33N 35°27' E 139°38'6 5.8
2014-Jul-18 02:33N 35°28' E 139°45'2 1.8
2014-Jul-18 01:34N 35°29' E 139°47'0 0.4
2014-Jul-18 00:33N 35°29' E 139°47'4 4.0
2014-Jul-17 23:33N 35°25' E 139°45'5 5.5
2014-Jul-17 22:34N 35°28' E 139°39'0 0.2
2014-Jul-17 21:34N 35°27' E 139°39'0 0.0
2014-Jul-17 20:34N 35°27' E 139°39'0 0.0
2014-Jul-17 19:34N 35°27' E 139°39'0 0.0
2014-Jul-17 18:34N 35°27' E 139°39'0 0.0
2014-Jul-17 17:34N 35°27' E 139°39'0 0.0
2014-Jul-17 16:34N 35°27' E 139°39'0 0.0
2014-Jul-17 15:34N 35°27' E 139°39'0 0.0
2014-Jul-17 14:33N 35°27' E 139°39'0 0.0
2014-Jul-17 13:34N 35°27' E 139°39'0 0.0
2014-Jul-17 12:34N 35°27' E 139°39'0 0.0
2014-Jul-17 11:33N 35°27' E 139°39'0 0.0
2014-Jul-17 10:34N 35°27' E 139°39'6 6.3
2014-Jul-17 09:33N 35°29' E 139°46'1 0.8
2014-Jul-17 08:33N 35°30' E 139°47'0 0.0
2014-Jul-17 07:33N 35°30' E 139°47'0 0.3
2014-Jul-17 06:33N 35°30' E 139°46'6 6.5
2014-Jul-17 05:33N 35°27' E 139°39'3 3.4
2014-Jul-17 04:34N 35°24' E 139°41'1 1.3
2014-Jul-17 03:34N 35°23' E 139°40'2 1.9
2014-Jul-17 02:34N 35°25' E 139°39'0 0.0
2014-Jul-17 01:34N 35°25' E 139°39'2 2.1
2014-Jul-17 00:34N 35°23' E 139°41'4 4.1
2014-Jul-16 23:34N 35°27' E 139°40'1 1.3
2014-Jul-16 22:34N 35°27' E 139°38'0 0.0
2014-Jul-16 21:33N 35°27' E 139°38'0 0.0
2014-Jul-16 20:34N 35°27' E 139°38'0 0.0
2014-Jul-16 19:34N 35°27' E 139°38'0 0.0
2014-Jul-16 18:34N 35°27' E 139°38'0 0.0
2014-Jul-16 17:33N 35°27' E 139°38'0 0.0
2014-Jul-16 16:33N 35°27' E 139°38'0 0.0
2014-Jul-16 15:34N 35°27' E 139°38'0 0.0
2014-Jul-16 14:33N 35°27' E 139°38'0 0.0
2014-Jul-16 13:34N 35°27' E 139°38'0 0.0
2014-Jul-16 12:34N 35°27' E 139°38'0 0.0
2014-Jul-16 11:34N 35°27' E 139°38'0 0.0
2014-Jul-16 10:34N 35°27' E 139°38'1 0.7
2014-Jul-16 09:33N 35°28' E 139°39'2 2.4
2014-Jul-16 08:33N 35°26' E 139°42'0 0.2
2014-Jul-16 07:34N 35°26' E 139°42'5 5.4
2014-Jul-16 06:34N 35°30' E 139°46'6 6.2
2014-Jul-16 05:33N 35°27' E 139°40'0 0.0
2014-Jul-16 04:33N 35°27' E 139°40'0 0.5
2014-Jul-16 03:33N 35°27' E 139°40'1 1.2
2014-Jul-16 02:33N 35°26' E 139°41'1 1.5
2014-Jul-16 01:34N 35°27' E 139°39'0 0.0
2014-Jul-16 00:33N 35°27' E 139°39'0 0.0
2014-Jul-15 23:34N 35°27' E 139°39'2 2.2
2014-Jul-15 22:33N 35°28' E 139°42'2 1.5
2014-Jul-15 21:33N 35°27' E 139°43'3 3.2
2014-Jul-15 20:33N 35°27' E 139°39'1 0.5
2014-Jul-15 19:33N 35°27' E 139°39'0 0.0
2014-Jul-15 18:33N 35°27' E 139°39'0 0.0
2014-Jul-15 17:34N 35°27' E 139°39'0 0.0
2014-Jul-15 16:33N 35°27' E 139°39'0 0.0
2014-Jul-15 15:34N 35°27' E 139°39'0 0.0
2014-Jul-15 14:34N 35°27' E 139°39'0 0.0
2014-Jul-15 13:34N 35°27' E 139°39'0 0.0
2014-Jul-15 12:33N 35°27' E 139°39'0 0.0
2014-Jul-15 11:33N 35°27' E 139°39'0 0.0
2014-Jul-15 10:34N 35°27' E 139°39'2 2.3
2014-Jul-15 09:34N 35°26' E 139°42'2 1.9
2014-Jul-15 08:34N 35°24' E 139°42'2 1.7
2014-Jul-15 07:34N 35°26' E 139°42'1 0.9
2014-Jul-15 06:33N 35°26' E 139°41'1 1.3
2014-Jul-15 05:33N 35°28' E 139°41'0 0.0
2014-Jul-15 04:34N 35°28' E 139°41'3 3.4
2014-Jul-15 03:34N 35°30' E 139°44'0 0.5
2014-Jul-15 02:33N 35°29' E 139°43'2 2.1
2014-Jul-15 01:33N 35°27' E 139°43'1 0.7
2014-Jul-15 00:34N 35°27' E 139°42'0 0.0
2014-Jul-14 23:33N 35°27' E 139°42'1 0.6
2014-Jul-14 22:33N 35°27' E 139°41'1 1.0
2014-Jul-14 21:33N 35°28' E 139°42'3 3.1
2014-Jul-14 20:33N 35°27' E 139°38'0 0.0
2014-Jul-14 19:33N 35°27' E 139°38'0 0.0
2014-Jul-14 18:34N 35°27' E 139°38'0 0.0
2014-Jul-14 17:34N 35°27' E 139°38'0 0.0
2014-Jul-14 16:33N 35°27' E 139°38'0 0.0
2014-Jul-14 15:33N 35°27' E 139°38'0 0.0
2014-Jul-14 14:33N 35°27' E 139°38'0 0.0
2014-Jul-14 13:33N 35°27' E 139°38'0 0.0
2014-Jul-14 12:34N 35°27' E 139°38'0 0.0
2014-Jul-14 11:33N 35°27' E 139°38'0 0.0
2014-Jul-14 10:33N 35°27' E 139°38'0 0.0
2014-Jul-14 09:33N 35°27' E 139°38'4 4.3
2014-Jul-14 08:34N 35°24' E 139°42'1 0.8
2014-Jul-14 07:33N 35°24' E 139°41'4 3.8
2014-Jul-14 06:34N 35°28' E 139°39'0 0.3
2014-Jul-14 05:34N 35°27' E 139°38'0 0.0
2014-Jul-14 04:33N 35°27' E 139°38'5 5.1
2014-Jul-14 03:34N 35°28' E 139°45'1 0.5
2014-Jul-14 02:34N 35°29' E 139°45'2 2.1
2014-Jul-14 01:33N 35°27' E 139°46'2 1.9
2014-Jul-14 00:33N 35°29' E 139°47'2 1.6
2014-Jul-13 23:34N 35°28' E 139°45'3 2.8
2014-Jul-13 22:33N 35°28' E 139°42'3 2.8
2014-Jul-13 21:33N 35°26' E 139°44'3 2.9
2014-Jul-13 20:33N 35°27' E 139°41'1 1.2
2014-Jul-13 19:34N 35°27' E 139°39'0 0.0
2014-Jul-13 18:33N 35°27' E 139°39'0 0.0
2014-Jul-13 17:33N 35°27' E 139°39'0 0.0
2014-Jul-13 16:34N 35°27' E 139°39'0 0.0
2014-Jul-13 15:34N 35°27' E 139°39'0 0.0
2014-Jul-13 14:33N 35°27' E 139°39'0 0.0
2014-Jul-13 13:34N 35°27' E 139°39'0 0.0
2014-Jul-13 12:33N 35°27' E 139°39'0 0.0
2014-Jul-13 11:33N 35°27' E 139°39'7 7.0
2014-Jul-13 10:34N 35°30' E 139°47'3 3.4
2014-Jul-13 09:33N 35°30' E 139°43'3 3.2
2014-Jul-13 08:34N 35°28' E 139°40'0 0.1
2014-Jul-13 07:34N 35°28' E 139°41'0 0.0
2014-Jul-13 06:34N 35°28' E 139°41'1 0.5
2014-Jul-13 05:33N 35°27' E 139°41'5 5.4
2014-Jul-13 04:33N 35°29' E 139°47'0 0.2
2014-Jul-13 03:34N 35°29' E 139°47'3 2.8
2014-Jul-13 02:34N 35°26' E 139°45'6 5.7
2014-Jul-13 01:33N 35°28' E 139°39'0 0.1
2014-Jul-13 00:34N 35°27' E 139°38'0 0.0
2014-Jul-12 23:34N 35°27' E 139°38'0 0.0
2014-Jul-12 22:34N 35°27' E 139°38'0 0.0
2014-Jul-12 21:34N 35°27' E 139°38'0 0.0
2014-Jul-12 20:33N 35°27' E 139°38'0 0.0
2014-Jul-12 19:34N 35°27' E 139°38'0 0.0
2014-Jul-12 18:33N 35°27' E 139°38'0 0.0
2014-Jul-12 17:34N 35°27' E 139°38'0 0.0
2014-Jul-12 16:34N 35°27' E 139°38'0 0.0
2014-Jul-12 15:33N 35°27' E 139°38'  
Track history (hours):
 
Tides and Currents Weather Stations Pressure Air Temp Water Temp Dewpoint Dewpoint Depression Visibility Wind Speed Wind Dir Waves Ship Positions

Awaji Maru

Last reported at 2014-Jul-22 14:34 UTC. Time now 2014-Jul-22 14:59 UTC.
Position N 35°27' E 139°38'.

Length 37 m; draft 3 m.

Type: Tug. MMSI: 431001074.

Date/timePositionNaut miles runAvg speedWind from/ knotsBaromVisibWave heightAir tempDewpointWater temp
2014-Jul-22 14:34N 35°27' E 139°38'0 0.0
2014-Jul-22 13:34N 35°27' E 139°38'0 0.0
2014-Jul-22 12:33N 35°27' E 139°38'0 0.0
2014-Jul-22 11:34N 35°27' E 139°38'0 0.0
2014-Jul-22 10:34N 35°27' E 139°38'0 0.0
2014-Jul-22 09:34N 35°27' E 139°38'0 0.0
2014-Jul-22 08:33N 35°27' E 139°38'0 0.4
2014-Jul-22 07:34N 35°28' E 139°39'6 6.3
2014-Jul-22 06:34N 35°30' E 139°46'4 4.3
2014-Jul-22 05:34N 35°27' E 139°43'2 1.7
2014-Jul-22 04:34N 35°28' E 139°44'0 0.2
2014-Jul-22 03:34N 35°28' E 139°44'1 1.5
2014-Jul-22 02:33N 35°27' E 139°45'2 1.6
2014-Jul-22 01:33N 35°28' E 139°44'0 0.3
2014-Jul-22 00:33N 35°28' E 139°43'3 3.3
2014-Jul-21 23:34N 35°27' E 139°39'0 0.0
2014-Jul-21 22:33N 35°27' E 139°39'0 0.0
2014-Jul-21 21:33N 35°27' E 139°39'1 0.8
2014-Jul-21 20:34N 35°27' E 139°38'0 0.0
2014-Jul-21 20:18N 35°27' E 139°38'0 0.0
2014-Jul-21 19:34N 35°27' E 139°38'0 0.0
2014-Jul-21 18:34N 35°27' E 139°38'0 0.0
2014-Jul-21 17:33N 35°27' E 139°38'0 0.0
2014-Jul-21 16:34N 35°27' E 139°38'0 0.0
2014-Jul-21 15:34N 35°27' E 139°38'0 0.0
2014-Jul-21 14:34N 35°27' E 139°38'0 0.0
2014-Jul-21 13:34N 35°27' E 139°38'0 0.0
2014-Jul-21 12:34N 35°27' E 139°38'0 0.0
2014-Jul-21 11:34N 35°27' E 139°38'0 0.0
2014-Jul-21 10:34N 35°27' E 139°38'0 0.0
2014-Jul-21 09:33N 35°27' E 139°38'0 0.0
2014-Jul-21 08:33N 35°27' E 139°38'0 0.0
2014-Jul-21 07:33N 35°27' E 139°38'3 2.7
2014-Jul-21 06:33N 35°25' E 139°39'2 2.2
2014-Jul-21 05:33N 35°23' E 139°41'0 0.4
2014-Jul-21 04:34N 35°23' E 139°40'0 0.0
2014-Jul-21 03:34N 35°23' E 139°40'0 0.0
2014-Jul-21 02:34N 35°23' E 139°40'5 5.2
2014-Jul-21 01:34N 35°28' E 139°43'0 0.1
2014-Jul-21 00:33N 35°28' E 139°43'1 1.4
2014-Jul-20 23:33N 35°26' E 139°44'2 1.7
2014-Jul-20 22:34N 35°27' E 139°42'1 1.0
2014-Jul-20 21:34N 35°27' E 139°41'2 2.0
2014-Jul-20 20:34N 35°27' E 139°38'0 0.1
2014-Jul-20 19:34N 35°27' E 139°38'0 0.0
2014-Jul-20 18:34N 35°27' E 139°38'0 0.0
2014-Jul-20 17:34N 35°27' E 139°38'0 0.0
2014-Jul-20 16:34N 35°27' E 139°38'0 0.0
2014-Jul-20 15:34N 35°27' E 139°38'0 0.0
2014-Jul-20 14:33N 35°27' E 139°38'0 0.0
2014-Jul-20 13:33N 35°27' E 139°38'0 0.0
2014-Jul-20 12:34N 35°27' E 139°38'0 0.0
2014-Jul-20 11:33N 35°27' E 139°38'0 0.0
2014-Jul-20 10:34N 35°27' E 139°38'0 0.0
2014-Jul-20 09:34N 35°27' E 139°38'0 0.0
2014-Jul-20 08:34N 35°27' E 139°38'0 0.0
2014-Jul-20 07:34N 35°27' E 139°38'0 0.0
2014-Jul-20 06:34N 35°27' E 139°38'0 0.0
2014-Jul-20 05:33N 35°27' E 139°38'0 0.0
2014-Jul-20 04:33N 35°27' E 139°38'0 0.0
2014-Jul-20 03:34N 35°27' E 139°38'0 0.0
2014-Jul-20 02:33N 35°27' E 139°38'0 0.0
2014-Jul-20 01:34N 35°27' E 139°38'0 0.0
2014-Jul-20 00:33N 35°27' E 139°38'0 0.0
2014-Jul-19 23:33N 35°27' E 139°38'0 0.0
2014-Jul-19 22:33N 35°27' E 139°38'0 0.0
2014-Jul-19 21:33N 35°27' E 139°38'0 0.0
2014-Jul-19 20:34N 35°27' E 139°38'0 0.0
2014-Jul-19 19:34N 35°27' E 139°38'0 0.0
2014-Jul-19 18:34N 35°27' E 139°38'0 0.0
2014-Jul-19 17:34N 35°27' E 139°38'0 0.0
2014-Jul-19 16:34N 35°27' E 139°38'0 0.0
2014-Jul-19 15:34N 35°27' E 139°38'0 0.0
2014-Jul-19 14:33N 35°27' E 139°38'0 0.0
2014-Jul-19 13:33N 35°27' E 139°38'0 0.0
2014-Jul-19 12:33N 35°27' E 139°38'0 0.0
2014-Jul-19 11:34N 35°27' E 139°38'0 0.0
2014-Jul-19 10:34N 35°27' E 139°38'0 0.0
2014-Jul-19 09:34N 35°27' E 139°38'0 0.0
2014-Jul-19 08:33N 35°27' E 139°38'0 0.0
2014-Jul-19 07:34N 35°27' E 139°38'0 0.0
2014-Jul-19 06:33N 35°27' E 139°38'0 0.0
2014-Jul-19 05:34N 35°27' E 139°38'0 0.0
2014-Jul-19 04:34N 35°27' E 139°38'0 0.0
2014-Jul-19 03:34N 35°27' E 139°38'0 0.0
2014-Jul-19 02:34N 35°27' E 139°38'0 0.0
2014-Jul-19 01:33N 35°27' E 139°38'0 0.0
2014-Jul-19 00:34N 35°27' E 139°38'0 0.0
2014-Jul-18 23:34N 35°27' E 139°38'0 0.0
2014-Jul-18 22:33N 35°27' E 139°38'0 0.0
2014-Jul-18 21:34N 35°27' E 139°38'0 0.0
2014-Jul-18 20:34N 35°27' E 139°38'0 0.0
2014-Jul-18 19:33N 35°27' E 139°38'0 0.0
2014-Jul-18 18:34N 35°27' E 139°38'0 0.0
2014-Jul-18 17:34N 35°27' E 139°38'0 0.0
2014-Jul-18 16:34N 35°27' E 139°38'0 0.0
2014-Jul-18 15:34N 35°27' E 139°38'0 0.0
2014-Jul-18 14:34N 35°27' E 139°38'0 0.0
2014-Jul-18 13:34N 35°27' E 139°38'0 0.0
2014-Jul-18 12:34N 35°27' E 139°38'0 0.0
2014-Jul-18 11:34N 35°27' E 139°38'0 0.0
2014-Jul-18 10:33N 35°27' E 139°38'0 0.0
2014-Jul-18 09:33N 35°27' E 139°38'0 0.3
2014-Jul-18 08:34N 35°28' E 139°39'3 2.7
2014-Jul-18 07:34N 35°28' E 139°42'3 2.5
2014-Jul-18 06:33N 35°28' E 139°39'0 0.4
2014-Jul-18 05:34N 35°27' E 139°38'0 0.0
2014-Jul-18 04:34N 35°27' E 139°38'0 0.0
2014-Jul-18 03:33N 35°27' E 139°38'6 5.8
2014-Jul-18 02:33N 35°28' E 139°45'2 1.8
2014-Jul-18 01:34N 35°29' E 139°47'0 0.4
2014-Jul-18 00:33N 35°29' E 139°47'4 4.0
2014-Jul-17 23:33N 35°25' E 139°45'5 5.5
2014-Jul-17 22:34N 35°28' E 139°39'0 0.2
2014-Jul-17 21:34N 35°27' E 139°39'0 0.0
2014-Jul-17 20:34N 35°27' E 139°39'0 0.0
2014-Jul-17 19:34N 35°27' E 139°39'0 0.0
2014-Jul-17 18:34N 35°27' E 139°39'0 0.0
2014-Jul-17 17:34N 35°27' E 139°39'0 0.0
2014-Jul-17 16:34N 35°27' E 139°39'0 0.0
2014-Jul-17 15:34N 35°27' E 139°39'0 0.0
2014-Jul-17 14:33N 35°27' E 139°39'0 0.0
2014-Jul-17 13:34N 35°27' E 139°39'0 0.0
2014-Jul-17 12:34N 35°27' E 139°39'0 0.0
2014-Jul-17 11:33N 35°27' E 139°39'0 0.0
2014-Jul-17 10:34N 35°27' E 139°39'6 6.3
2014-Jul-17 09:33N 35°29' E 139°46'1 0.8
2014-Jul-17 08:33N 35°30' E 139°47'0 0.0
2014-Jul-17 07:33N 35°30' E 139°47'0 0.3
2014-Jul-17 06:33N 35°30' E 139°46'6 6.5
2014-Jul-17 05:33N 35°27' E 139°39'3 3.4
2014-Jul-17 04:34N 35°24' E 139°41'1 1.3
2014-Jul-17 03:34N 35°23' E 139°40'2 1.9
2014-Jul-17 02:34N 35°25' E 139°39'0 0.0
2014-Jul-17 01:34N 35°25' E 139°39'2 2.1
2014-Jul-17 00:34N 35°23' E 139°41'4 4.1
2014-Jul-16 23:34N 35°27' E 139°40'1 1.3
2014-Jul-16 22:34N 35°27' E 139°38'0 0.0
2014-Jul-16 21:33N 35°27' E 139°38'0 0.0
2014-Jul-16 20:34N 35°27' E 139°38'0 0.0
2014-Jul-16 19:34N 35°27' E 139°38'0 0.0
2014-Jul-16 18:34N 35°27' E 139°38'0 0.0
2014-Jul-16 17:33N 35°27' E 139°38'0 0.0
2014-Jul-16 16:33N 35°27' E 139°38'0 0.0
2014-Jul-16 15:34N 35°27' E 139°38'0 0.0
2014-Jul-16 14:33N 35°27' E 139°38'0 0.0
2014-Jul-16 13:34N 35°27' E 139°38'0 0.0
2014-Jul-16 12:34N 35°27' E 139°38'0 0.0
2014-Jul-16 11:34N 35°27' E 139°38'0 0.0
2014-Jul-16 10:34N 35°27' E 139°38'1 0.7
2014-Jul-16 09:33N 35°28' E 139°39'2 2.4
2014-Jul-16 08:33N 35°26' E 139°42'0 0.2
2014-Jul-16 07:34N 35°26' E 139°42'5 5.4
2014-Jul-16 06:34N 35°30' E 139°46'6 6.2
2014-Jul-16 05:33N 35°27' E 139°40'0 0.0
2014-Jul-16 04:33N 35°27' E 139°40'0 0.5
2014-Jul-16 03:33N 35°27' E 139°40'1 1.2
2014-Jul-16 02:33N 35°26' E 139°41'1 1.5
2014-Jul-16 01:34N 35°27' E 139°39'0 0.0
2014-Jul-16 00:33N 35°27' E 139°39'0 0.0
2014-Jul-15 23:34N 35°27' E 139°39'2 2.2
2014-Jul-15 22:33N 35°28' E 139°42'2 1.5
2014-Jul-15 21:33N 35°27' E 139°43'3 3.2
2014-Jul-15 20:33N 35°27' E 139°39'1 0.5
2014-Jul-15 19:33N 35°27' E 139°39'0 0.0
2014-Jul-15 18:33N 35°27' E 139°39'0 0.0
2014-Jul-15 17:34N 35°27' E 139°39'0 0.0
2014-Jul-15 16:33N 35°27' E 139°39'0 0.0
2014-Jul-15 15:34N 35°27' E 139°39'0 0.0
2014-Jul-15 14:34N 35°27' E 139°39'0 0.0
2014-Jul-15 13:34N 35°27' E 139°39'0 0.0
2014-Jul-15 12:33N 35°27' E 139°39'0 0.0
2014-Jul-15 11:33N 35°27' E 139°39'0 0.0
2014-Jul-15 10:34N 35°27' E 139°39'2 2.3
2014-Jul-15 09:34N 35°26' E 139°42'2 1.9
2014-Jul-15 08:34N 35°24' E 139°42'2 1.7
2014-Jul-15 07:34N 35°26' E 139°42'1 0.9
2014-Jul-15 06:33N 35°26' E 139°41'1 1.3
2014-Jul-15 05:33N 35°28' E 139°41'0 0.0
2014-Jul-15 04:34N 35°28' E 139°41'3 3.4
2014-Jul-15 03:34N 35°30' E 139°44'0 0.5
2014-Jul-15 02:33N 35°29' E 139°43'2 2.1
2014-Jul-15 01:33N 35°27' E 139°43'1 0.7
2014-Jul-15 00:34N 35°27' E 139°42'0 0.0
2014-Jul-14 23:33N 35°27' E 139°42'1 0.6
2014-Jul-14 22:33N 35°27' E 139°41'1 1.0
2014-Jul-14 21:33N 35°28' E 139°42'3 3.1
2014-Jul-14 20:33N 35°27' E 139°38'0 0.0
2014-Jul-14 19:33N 35°27' E 139°38'0 0.0
2014-Jul-14 18:34N 35°27' E 139°38'0 0.0
2014-Jul-14 17:34N 35°27' E 139°38'0 0.0
2014-Jul-14 16:33N 35°27' E 139°38'0 0.0
2014-Jul-14 15:33N 35°27' E 139°38'0 0.0
2014-Jul-14 14:33N 35°27' E 139°38'0 0.0
2014-Jul-14 13:33N 35°27' E 139°38'0 0.0
2014-Jul-14 12:34N 35°27' E 139°38'0 0.0
2014-Jul-14 11:33N 35°27' E 139°38'0 0.0
2014-Jul-14 10:33N 35°27' E 139°38'0 0.0
2014-Jul-14 09:33N 35°27' E 139°38'4 4.3
2014-Jul-14 08:34N 35°24' E 139°42'1 0.8
2014-Jul-14 07:33N 35°24' E 139°41'4 3.8
2014-Jul-14 06:34N 35°28' E 139°39'0 0.3
2014-Jul-14 05:34N 35°27' E 139°38'0 0.0
2014-Jul-14 04:33N 35°27' E 139°38'5 5.1
2014-Jul-14 03:34N 35°28' E 139°45'1 0.5
2014-Jul-14 02:34N 35°29' E 139°45'2 2.1
2014-Jul-14 01:33N 35°27' E 139°46'2 1.9
2014-Jul-14 00:33N 35°29' E 139°47'2 1.6
2014-Jul-13 23:34N 35°28' E 139°45'3 2.8
2014-Jul-13 22:33N 35°28' E 139°42'3 2.8
2014-Jul-13 21:33N 35°26' E 139°44'3 2.9
2014-Jul-13 20:33N 35°27' E 139°41'1 1.2
2014-Jul-13 19:34N 35°27' E 139°39'0 0.0
2014-Jul-13 18:33N 35°27' E 139°39'0 0.0
2014-Jul-13 17:33N 35°27' E 139°39'0 0.0
2014-Jul-13 16:34N 35°27' E 139°39'0 0.0
2014-Jul-13 15:34N 35°27' E 139°39'0 0.0
2014-Jul-13 14:33N 35°27' E 139°39'0 0.0
2014-Jul-13 13:34N 35°27' E 139°39'0 0.0
2014-Jul-13 12:33N 35°27' E 139°39'0 0.0
2014-Jul-13 11:33N 35°27' E 139°39'7 7.0
2014-Jul-13 10:34N 35°30' E 139°47'3 3.4
2014-Jul-13 09:33N 35°30' E 139°43'3 3.2
2014-Jul-13 08:34N 35°28' E 139°40'0 0.1
2014-Jul-13 07:34N 35°28' E 139°41'0 0.0
2014-Jul-13 06:34N 35°28' E 139°41'1 0.5
2014-Jul-13 05:33N 35°27' E 139°41'5 5.4
2014-Jul-13 04:33N 35°29' E 139°47'0 0.2
2014-Jul-13 03:34N 35°29' E 139°47'3 2.8
2014-Jul-13 02:34N 35°26' E 139°45'6 5.7
2014-Jul-13 01:33N 35°28' E 139°39'0 0.1
2014-Jul-13 00:34N 35°27' E 139°38'0 0.0
2014-Jul-12 23:34N 35°27' E 139°38'0 0.0
2014-Jul-12 22:34N 35°27' E 139°38'0 0.0
2014-Jul-12 21:34N 35°27' E 139°38'0 0.0
2014-Jul-12 20:33N 35°27' E 139°38'0 0.0
2014-Jul-12 19:34N 35°27' E 139°38'0 0.0
2014-Jul-12 18:33N 35°27' E 139°38'0 0.0
2014-Jul-12 17:34N 35°27' E 139°38'0 0.0
2014-Jul-12 16:34N 35°27' E 139°38'0 0.0
2014-Jul-12 15:33N 35°27' E 139°38'  

Dump ship's entire track history